Lyttelton, South Africa
Current Conditions -  °F | °C
As of 6:00 PM on Saturday 25 Oct 2014 (Local Time) from FALA Reporting Station
Light Rain Light Rain  
Wind Chill: 77°   Ceiling: Unl
Heat Index: 78°   Visibility: 6mi
Dew Point: 52°   Wind: 18mph
Humidity: 41%   Direction: 20°NNE
Pressure: 30.03"   Gusts: NA
Location:  25.83°S, 28.22°E
Report Text: FALA 251600Z 02016KT 9999 -RA FEW030 SCT035 25/11 Q1017 NOSIG
Loading
Personal Weather Stations






























Interactive Weather Map
Tropical Storm Tracking
New forecast layout! Learn more

10-Day Weather Forecast

Advertisements
Track Severe Weather on mobile